sensor_id;sensor_type;location;lat;lon;timestamp;pressure;altitude;pressure_sealevel;temperature;humidity
4085;BME280;2057;50.858;6.572;2022-09-14T00:02:19;99498.75;;;19.05;100.00
4085;BME280;2057;50.858;6.572;2022-09-14T00:04:44;99499.63;;;19.02;100.00
4085;BME280;2057;50.858;6.572;2022-09-14T00:07:10;99505.63;;;18.96;100.00
4085;BME280;2057;50.858;6.572;2022-09-14T00:09:35;99499.63;;;18.96;100.00
4085;BME280;2057;50.858;6.572;2022-09-14T00:12:01;99492.75;;;19.00;100.00
4085;BME280;2057;50.858;6.572;2022-09-14T00:14:26;99492.72;;;18.90;100.00
4085;BME280;2057;50.858;6.572;2022-09-14T00:16:51;99488.47;;;18.92;100.00
4085;BME280;2057;50.858;6.572;2022-09-14T00:19:22;99485.88;;;19.02;100.00
4085;BME280;2057;50.858;6.572;2022-09-14T00:21:55;99487.63;;;18.96;100.00
4085;BME280;2057;50.858;6.572;2022-09-14T00:24:21;99485.03;;;18.95;100.00
4085;BME280;2057;50.858;6.572;2022-09-14T00:26:47;99482.47;;;19.03;100.00
4085;BME280;2057;50.858;6.572;2022-09-14T00:29:13;99478.16;;;19.02;100.00
4085;BME280;2057;50.858;6.572;2022-09-14T00:31:38;99470.47;;;19.05;100.00
4085;BME280;2057;50.858;6.572;2022-09-14T00:34:06;99469.59;;;19.03;100.00
4085;BME280;2057;50.858;6.572;2022-09-14T00:36:35;99466.16;;;19.04;100.00
4085;BME280;2057;50.858;6.572;2022-09-14T00:39:01;99467.91;;;19.00;100.00
4085;BME280;2057;50.858;6.572;2022-09-14T00:41:30;99472.19;;;19.01;100.00
4085;BME280;2057;50.858;6.572;2022-09-14T00:44:01;99471.34;;;18.98;100.00
4085;BME280;2057;50.858;6.572;2022-09-14T00:49:10;99463.59;;;18.96;100.00
4085;BME280;2057;50.858;6.572;2022-09-14T00:51:40;99464.44;;;18.90;100.00
4085;BME280;2057;50.858;6.572;2022-09-14T00:54:07;99455.88;;;18.85;100.00
4085;BME280;2057;50.858;6.572;2022-09-14T00:56:33;99469.59;;;18.79;100.00
4085;BME280;2057;50.858;6.572;2022-09-14T00:59:04;99461.91;;;18.73;100.00
4085;BME280;2057;50.858;6.572;2022-09-14T01:01:30;99451.59;;;18.70;100.00
4085;BME280;2057;50.858;6.572;2022-09-14T01:03:56;99449.06;;;18.62;100.00
4085;BME280;2057;50.858;6.572;2022-09-14T01:11:59;99449.94;;;18.55;100.00
4085;BME280;2057;50.858;6.572;2022-09-14T01:14:34;99451.63;;;18.55;100.00
4085;BME280;2057;50.858;6.572;2022-09-14T01:22:09;99440.50;;;18.54;100.00
4085;BME280;2057;50.858;6.572;2022-09-14T01:24:43;99437.94;;;18.54;100.00
4085;BME280;2057;50.858;6.572;2022-09-14T01:27:36;99443.06;;;18.60;100.00
4085;BME280;2057;50.858;6.572;2022-09-14T01:30:17;99443.94;;;18.53;100.00
4085;BME280;2057;50.858;6.572;2022-09-14T01:35:28;99453.34;;;18.59;100.00
4085;BME280;2057;50.858;6.572;2022-09-14T01:38:02;99457.63;;;18.54;100.00
4085;BME280;2057;50.858;6.572;2022-09-14T01:40:32;99449.94;;;18.50;100.00
4085;BME280;2057;50.858;6.572;2022-09-14T01:43:13;99449.03;;;18.56;100.00
4085;BME280;2057;50.858;6.572;2022-09-14T01:45:45;99440.47;;;18.53;100.00
4085;BME280;2057;50.858;6.572;2022-09-14T01:48:14;99437.06;;;18.54;100.00
4085;BME280;2057;50.858;6.572;2022-09-14T01:50:48;99446.50;;;18.48;100.00
4085;BME280;2057;50.858;6.572;2022-09-14T01:58:27;99441.34;;;18.27;100.00
4085;BME280;2057;50.858;6.572;2022-09-14T02:00:56;99425.09;;;18.40;100.00
4085;BME280;2057;50.858;6.572;2022-09-14T02:03:28;99422.50;;;18.53;100.00
4085;BME280;2057;50.858;6.572;2022-09-14T02:06:02;99419.06;;;18.57;100.00
4085;BME280;2057;50.858;6.572;2022-09-14T02:08:30;99427.63;;;18.60;100.00
4085;BME280;2057;50.858;6.572;2022-09-14T02:10:57;99424.22;;;18.57;100.00
4085;BME280;2057;50.858;6.572;2022-09-14T02:13:23;99425.06;;;18.57;100.00
4085;BME280;2057;50.858;6.572;2022-09-14T02:15:50;99418.22;;;18.53;100.00
4085;BME280;2057;50.858;6.572;2022-09-14T02:18:15;99415.66;;;18.58;100.00
4085;BME280;2057;50.858;6.572;2022-09-14T02:20:48;99409.63;;;18.48;100.00
4085;BME280;2057;50.858;6.572;2022-09-14T02:23:15;99403.66;;;18.57;100.00
4085;BME280;2057;50.858;6.572;2022-09-14T02:25:41;99398.47;;;18.60;100.00
4085;BME280;2057;50.858;6.572;2022-09-14T02:28:07;99406.22;;;18.66;100.00
4085;BME280;2057;50.858;6.572;2022-09-14T02:30:44;99393.34;;;18.75;100.00
4085;BME280;2057;50.858;6.572;2022-09-14T02:33:18;99386.47;;;18.74;100.00
4085;BME280;2057;50.858;6.572;2022-09-14T02:35:58;99386.47;;;18.71;100.00
4085;BME280;2057;50.858;6.572;2022-09-14T02:41:31;99375.31;;;18.77;100.00
4085;BME280;2057;50.858;6.572;2022-09-14T02:47:15;99371.88;;;18.79;100.00
4085;BME280;2057;50.858;6.572;2022-09-14T02:49:48;99365.88;;;18.77;100.00
4085;BME280;2057;50.858;6.572;2022-09-14T02:55:12;99356.47;;;18.75;100.00
4085;BME280;2057;50.858;6.572;2022-09-14T02:58:07;99358.19;;;18.71;100.00
4085;BME280;2057;50.858;6.572;2022-09-14T03:00:38;99357.34;;;18.72;100.00
4085;BME280;2057;50.858;6.572;2022-09-14T03:03:06;99353.91;;;18.73;100.00
4085;BME280;2057;50.858;6.572;2022-09-14T03:05:32;99351.34;;;18.72;100.00
4085;BME280;2057;50.858;6.572;2022-09-14T03:07:58;99347.88;;;18.76;100.00
4085;BME280;2057;50.858;6.572;2022-09-14T03:10:24;99343.63;;;18.69;100.00
4085;BME280;2057;50.858;6.572;2022-09-14T03:12:51;99342.75;;;18.73;100.00
4085;BME280;2057;50.858;6.572;2022-09-14T03:15:16;99347.03;;;18.69;100.00
4085;BME280;2057;50.858;6.572;2022-09-14T03:17:48;99335.91;;;18.69;100.00
4085;BME280;2057;50.858;6.572;2022-09-14T03:20:16;99331.63;;;18.69;100.00
4085;BME280;2057;50.858;6.572;2022-09-14T03:22:44;99341.06;;;18.61;100.00
4085;BME280;2057;50.858;6.572;2022-09-14T03:25:09;99344.53;;;18.49;100.00
4085;BME280;2057;50.858;6.572;2022-09-14T03:27:34;99336.84;;;18.38;100.00
4085;BME280;2057;50.858;6.572;2022-09-14T03:30:00;99337.66;;;18.48;100.00
4085;BME280;2057;50.858;6.572;2022-09-14T03:32:25;99345.41;;;18.46;100.00
4085;BME280;2057;50.858;6.572;2022-09-14T03:34:50;99340.25;;;18.43;100.00
4085;BME280;2057;50.858;6.572;2022-09-14T03:37:18;99335.97;;;18.47;100.00
4085;BME280;2057;50.858;6.572;2022-09-14T03:39:43;99336.00;;;18.33;100.00
4085;BME280;2057;50.858;6.572;2022-09-14T03:42:09;99345.41;;;18.34;100.00
4085;BME280;2057;50.858;6.572;2022-09-14T03:44:34;99333.41;;;18.36;100.00
4085;BME280;2057;50.858;6.572;2022-09-14T03:47:00;99335.16;;;18.28;100.00
4085;BME280;2057;50.858;6.572;2022-09-14T03:49:25;99335.16;;;18.31;100.00
4085;BME280;2057;50.858;6.572;2022-09-14T03:51:50;99331.72;;;18.26;100.00
4085;BME280;2057;50.858;6.572;2022-09-14T03:54:16;99336.88;;;18.19;100.00
4085;BME280;2057;50.858;6.572;2022-09-14T03:56:41;99337.75;;;18.03;100.00
4085;BME280;2057;50.858;6.572;2022-09-14T03:59:10;99329.19;;;18.13;100.00
4085;BME280;2057;50.858;6.572;2022-09-14T04:01:35;99324.88;;;18.18;100.00
4085;BME280;2057;50.858;6.572;2022-09-14T04:04:04;99320.59;;;18.21;100.00
4085;BME280;2057;50.858;6.572;2022-09-14T04:06:30;99325.75;;;18.24;100.00
4085;BME280;2057;50.858;6.572;2022-09-14T04:08:57;99324.03;;;18.19;100.00
4085;BME280;2057;50.858;6.572;2022-09-14T04:11:24;99325.72;;;18.21;100.00
4085;BME280;2057;50.858;6.572;2022-09-14T04:13:51;99318.91;;;18.13;100.00
4085;BME280;2057;50.858;6.572;2022-09-14T04:16:18;99319.75;;;18.12;100.00
4085;BME280;2057;50.858;6.572;2022-09-14T04:18:45;99318.88;;;18.10;100.00
4085;BME280;2057;50.858;6.572;2022-09-14T04:21:18;99318.03;;;18.08;100.00
4085;BME280;2057;50.858;6.572;2022-09-14T04:23:44;99317.16;;;17.94;100.00
4085;BME280;2057;50.858;6.572;2022-09-14T04:26:11;99309.47;;;18.09;100.00
4085;BME280;2057;50.858;6.572;2022-09-14T04:28:37;99314.63;;;18.03;100.00
4085;BME280;2057;50.858;6.572;2022-09-14T04:31:04;99312.06;;;18.03;100.00
4085;BME280;2057;50.858;6.572;2022-09-14T04:33:31;99306.91;;;18.00;100.00
4085;BME280;2057;50.858;6.572;2022-09-14T04:35:59;99299.16;;;17.95;100.00
4085;BME280;2057;50.858;6.572;2022-09-14T04:38:26;99308.63;;;18.04;100.00
4085;BME280;2057;50.858;6.572;2022-09-14T04:40:54;99302.63;;;18.05;100.00
4085;BME280;2057;50.858;6.572;2022-09-14T04:43:20;99306.06;;;18.09;100.00
4085;BME280;2057;50.858;6.572;2022-09-14T04:45:45;99300.94;;;17.98;100.00
4085;BME280;2057;50.858;6.572;2022-09-14T04:48:10;99300.91;;;17.95;100.00
4085;BME280;2057;50.858;6.572;2022-09-14T04:50:36;99298.38;;;17.98;100.00
4085;BME280;2057;50.858;6.572;2022-09-14T04:53:01;99294.03;;;17.91;100.00
4085;BME280;2057;50.858;6.572;2022-09-14T04:55:27;99288.91;;;17.84;100.00
4085;BME280;2057;50.858;6.572;2022-09-14T04:57:52;99293.19;;;17.81;100.00
4085;BME280;2057;50.858;6.572;2022-09-14T05:00:18;99288.91;;;17.87;100.00
4085;BME280;2057;50.858;6.572;2022-09-14T05:02:46;99287.22;;;17.91;100.00
4085;BME280;2057;50.858;6.572;2022-09-14T05:05:11;99291.50;;;17.92;100.00
4085;BME280;2057;50.858;6.572;2022-09-14T05:07:36;99284.66;;;17.90;100.00
4085;BME280;2057;50.858;6.572;2022-09-14T05:10:02;99295.75;;;17.85;100.00
4085;BME280;2057;50.858;6.572;2022-09-14T05:12:28;99294.91;;;17.86;100.00
4085;BME280;2057;50.858;6.572;2022-09-14T05:14:54;99292.34;;;17.88;100.00
4085;BME280;2057;50.858;6.572;2022-09-14T05:17:19;99288.91;;;17.78;100.00
4085;BME280;2057;50.858;6.572;2022-09-14T05:19:44;99288.06;;;17.82;100.00
4085;BME280;2057;50.858;6.572;2022-09-14T05:22:10;99283.78;;;17.75;100.00
4085;BME280;2057;50.858;6.572;2022-09-14T05:24:35;99288.91;;;17.92;100.00
4085;BME280;2057;50.858;6.572;2022-09-14T05:27:00;99297.50;;;17.90;100.00
4085;BME280;2057;50.858;6.572;2022-09-14T05:29:26;99291.50;;;17.81;100.00
4085;BME280;2057;50.858;6.572;2022-09-14T05:31:51;99288.06;;;17.76;100.00
4085;BME280;2057;50.858;6.572;2022-09-14T05:34:16;99287.19;;;17.74;100.00
4085;BME280;2057;50.858;6.572;2022-09-14T05:36:42;99282.06;;;17.65;100.00
4085;BME280;2057;50.858;6.572;2022-09-14T05:39:08;99286.34;;;17.63;100.00
4085;BME280;2057;50.858;6.572;2022-09-14T05:41:33;99289.75;;;17.59;100.00
4085;BME280;2057;50.858;6.572;2022-09-14T05:43:59;99296.63;;;17.53;100.00
4085;BME280;2057;50.858;6.572;2022-09-14T05:46:24;99300.88;;;17.58;100.00
4085;BME280;2057;50.858;6.572;2022-09-14T05:48:50;99299.97;;;17.31;100.00
4085;BME280;2057;50.858;6.572;2022-09-14T05:51:21;99301.72;;;17.35;100.00
4085;BME280;2057;50.858;6.572;2022-09-14T05:53:51;99304.25;;;17.32;100.00
4085;BME280;2057;50.858;6.572;2022-09-14T05:56:18;99301.69;;;17.32;100.00
4085;BME280;2057;50.858;6.572;2022-09-14T05:58:44;99305.97;;;17.20;100.00
4085;BME280;2057;50.858;6.572;2022-09-14T06:01:15;99311.09;;;17.16;100.00
4085;BME280;2057;50.858;6.572;2022-09-14T06:03:42;99308.50;;;17.13;100.00
4085;BME280;2057;50.858;6.572;2022-09-14T06:06:09;99312.72;;;16.97;100.00
4085;BME280;2057;50.858;6.572;2022-09-14T06:08:34;99314.41;;;16.93;100.00
4085;BME280;2057;50.858;6.572;2022-09-14T06:11:04;99320.25;;;16.72;100.00
4085;BME280;2057;50.858;6.572;2022-09-14T06:13:30;99317.69;;;16.66;100.00
4085;BME280;2057;50.858;6.572;2022-09-14T06:16:03;99320.22;;;16.59;100.00
4085;BME280;2057;50.858;6.572;2022-09-14T06:18:33;99310.88;;;16.74;100.00
4085;BME280;2057;50.858;6.572;2022-09-14T06:20:59;99299.75;;;16.73;100.00
4085;BME280;2057;50.858;6.572;2022-09-14T06:23:26;99307.53;;;16.89;100.00
4085;BME280;2057;50.858;6.572;2022-09-14T06:25:53;99307.53;;;16.92;100.00
4085;BME280;2057;50.858;6.572;2022-09-14T06:28:19;99303.19;;;16.75;100.00
4085;BME280;2057;50.858;6.572;2022-09-14T06:30:44;99298.94;;;16.84;100.00
4085;BME280;2057;50.858;6.572;2022-09-14T06:33:09;99293.88;;;16.91;100.00
4085;BME280;2057;50.858;6.572;2022-09-14T06:35:35;99292.06;;;16.73;100.00
4085;BME280;2057;50.858;6.572;2022-09-14T06:38:00;99302.38;;;16.84;100.00
4085;BME280;2057;50.858;6.572;2022-09-14T06:40:26;99309.19;;;16.76;100.00
4085;BME280;2057;50.858;6.572;2022-09-14T06:42:52;99299.81;;;16.80;100.00
4085;BME280;2057;50.858;6.572;2022-09-14T06:45:18;99297.25;;;16.86;100.00
4085;BME280;2057;50.858;6.572;2022-09-14T06:47:43;99298.91;;;16.73;100.00
4085;BME280;2057;50.858;6.572;2022-09-14T06:50:08;99295.47;;;16.71;100.00
4085;BME280;2057;50.858;6.572;2022-09-14T06:52:36;99286.09;;;16.74;100.00
4085;BME280;2057;50.858;6.572;2022-09-14T06:55:02;99286.97;;;16.83;100.00
4085;BME280;2057;50.858;6.572;2022-09-14T06:57:28;99285.28;;;16.78;100.00
4085;BME280;2057;50.858;6.572;2022-09-14T06:59:53;99285.28;;;16.77;100.00
4085;BME280;2057;50.858;6.572;2022-09-14T07:02:18;99291.28;;;16.85;100.00
4085;BME280;2057;50.858;6.572;2022-09-14T07:04:44;99288.69;;;16.77;100.00
4085;BME280;2057;50.858;6.572;2022-09-14T07:07:09;99290.44;;;16.86;100.00
4085;BME280;2057;50.858;6.572;2022-09-14T07:09:35;99285.31;;;16.86;100.00
4085;BME280;2057;50.858;6.572;2022-09-14T07:12:01;99283.66;;;16.95;100.00
4085;BME280;2057;50.858;6.572;2022-09-14T07:14:26;99277.63;;;16.88;100.00
4085;BME280;2057;50.858;6.572;2022-09-14T07:16:51;99273.38;;;16.93;100.00
4085;BME280;2057;50.858;6.572;2022-09-14T07:19:17;99289.50;;;16.73;100.00
4085;BME280;2057;50.858;6.572;2022-09-14T07:21:42;99282.69;;;16.74;100.00
4085;BME280;2057;50.858;6.572;2022-09-14T07:24:10;99281.78;;;16.61;100.00
4085;BME280;2057;50.858;6.572;2022-09-14T07:26:39;99271.53;;;16.61;100.00
4085;BME280;2057;50.858;6.572;2022-09-14T07:29:10;99269.75;;;16.49;100.00
4085;BME280;2057;50.858;6.572;2022-09-14T07:31:47;99269.69;;;16.37;100.00
4085;BME280;2057;50.858;6.572;2022-09-14T07:34:13;99270.50;;;16.31;100.00
4085;BME280;2057;50.858;6.572;2022-09-14T07:36:40;99276.56;;;16.49;100.00
4085;BME280;2057;50.858;6.572;2022-09-14T07:39:07;99280.81;;;16.39;100.00
4085;BME280;2057;50.858;6.572;2022-09-14T07:41:36;99274.03;;;16.52;100.00
4085;BME280;2057;50.858;6.572;2022-09-14T07:44:03;99274.94;;;16.61;100.00
4085;BME280;2057;50.858;6.572;2022-09-14T07:46:31;99265.56;;;16.62;100.00
4085;BME280;2057;50.858;6.572;2022-09-14T07:49:01;99273.22;;;16.57;100.00
4085;BME280;2057;50.858;6.572;2022-09-14T07:51:28;99271.56;;;16.73;100.00
4085;BME280;2057;50.858;6.572;2022-09-14T07:53:54;99276.75;;;16.86;100.00
4085;BME280;2057;50.858;6.572;2022-09-14T07:56:22;99276.66;;;16.59;100.00
4085;BME280;2057;50.858;6.572;2022-09-14T07:58:52;99272.41;;;16.63;100.00
4085;BME280;2057;50.858;6.572;2022-09-14T08:01:18;99273.19;;;16.54;100.00
4085;BME280;2057;50.858;6.572;2022-09-14T08:03:44;99276.63;;;16.55;100.00
4085;BME280;2057;50.858;6.572;2022-09-14T08:06:15;99278.34;;;16.60;100.00
4085;BME280;2057;50.858;6.572;2022-09-14T08:08:43;99282.63;;;16.58;100.00
4085;BME280;2057;50.858;6.572;2022-09-14T08:11:30;99281.81;;;16.66;100.00
4085;BME280;2057;50.858;6.572;2022-09-14T08:13:58;99284.34;;;16.61;100.00
4085;BME280;2057;50.858;6.572;2022-09-14T08:16:27;99279.16;;;16.53;100.00
4085;BME280;2057;50.858;6.572;2022-09-14T08:18:58;99285.22;;;16.71;100.00
4085;BME280;2057;50.858;6.572;2022-09-14T08:21:25;99280.09;;;16.71;100.00
4085;BME280;2057;50.858;6.572;2022-09-14T08:23:51;99284.41;;;16.75;100.00
4085;BME280;2057;50.858;6.572;2022-09-14T08:26:18;99275.81;;;16.63;100.00
4085;BME280;2057;50.858;6.572;2022-09-14T08:28:46;99281.81;;;16.66;100.00
4085;BME280;2057;50.858;6.572;2022-09-14T08:31:14;99286.94;;;16.66;100.00
4085;BME280;2057;50.858;6.572;2022-09-14T08:33:42;99288.59;;;16.60;100.00
4085;BME280;2057;50.858;6.572;2022-09-14T08:36:09;99290.31;;;16.61;100.00
4085;BME280;2057;50.858;6.572;2022-09-14T08:38:36;99290.34;;;16.68;100.00
4085;BME280;2057;50.858;6.572;2022-09-14T08:41:32;99290.34;;;16.65;100.00
4085;BME280;2057;50.858;6.572;2022-09-14T08:44:46;99302.28;;;16.59;100.00
4085;BME280;2057;50.858;6.572;2022-09-14T08:46:52;99300.59;;;16.71;100.00
4085;BME280;2057;50.858;6.572;2022-09-14T08:58:11;99304.81;;;16.56;100.00
4085;BME280;2057;50.858;6.572;2022-09-14T09:06:56;99309.06;;;16.54;100.00
4085;BME280;2057;50.858;6.572;2022-09-14T09:09:26;99309.09;;;16.60;100.00
4085;BME280;2057;50.858;6.572;2022-09-14T09:11:56;99315.03;;;16.50;100.00
4085;BME280;2057;50.858;6.572;2022-09-14T09:14:33;99309.09;;;16.60;100.00
4085;BME280;2057;50.858;6.572;2022-09-14T09:17:03;99315.84;;;16.46;100.00
4085;BME280;2057;50.858;6.572;2022-09-14T09:19:40;99318.38;;;16.40;100.00
4085;BME280;2057;50.858;6.572;2022-09-14T09:22:14;99320.94;;;16.41;100.00
4085;BME280;2057;50.858;6.572;2022-09-14T09:24:44;99314.91;;;16.35;100.00
4085;BME280;2057;50.858;6.572;2022-09-14T09:27:13;99315.84;;;16.47;100.00
4085;BME280;2057;50.858;6.572;2022-09-14T09:29:40;99317.66;;;16.59;100.00
4085;BME280;2057;50.858;6.572;2022-09-14T09:32:18;99308.28;;;16.63;100.00
4085;BME280;2057;50.858;6.572;2022-09-14T09:34:45;99309.97;;;16.62;100.00
4085;BME280;2057;50.858;6.572;2022-09-14T09:37:15;99298.84;;;16.59;100.00
4085;BME280;2057;50.858;6.572;2022-09-14T09:39:42;99293.78;;;16.73;100.00
4085;BME280;2057;50.858;6.572;2022-09-14T09:42:17;99298.84;;;16.57;100.00
4085;BME280;2057;50.858;6.572;2022-09-14T09:45:04;99300.47;;;16.46;100.00
4085;BME280;2057;50.858;6.572;2022-09-14T09:47:36;99300.50;;;16.52;100.00
4085;BME280;2057;50.858;6.572;2022-09-14T09:50:25;99306.44;;;16.45;100.00
4085;BME280;2057;50.858;6.572;2022-09-14T09:52:55;99303.09;;;16.54;100.00
4085;BME280;2057;50.858;6.572;2022-09-14T09:55:24;99303.06;;;16.49;100.00
4085;BME280;2057;50.858;6.572;2022-09-14T09:57:52;99299.59;;;16.44;100.00
4085;BME280;2057;50.858;6.572;2022-09-14T10:00:23;99290.97;;;16.23;100.00
4085;BME280;2057;50.858;6.572;2022-09-14T10:02:50;99293.59;;;16.33;100.00
4085;BME280;2057;50.858;6.572;2022-09-14T10:10:16;99263.72;;;16.36;100.00
4085;BME280;2057;50.858;6.572;2022-09-14T10:12:48;99262.09;;;16.49;100.00
4085;BME280;2057;50.858;6.572;2022-09-14T10:20:35;99265.50;;;16.48;100.00
4085;BME280;2057;50.858;6.572;2022-09-14T10:25:42;99271.44;;;16.41;100.00
4085;BME280;2057;50.858;6.572;2022-09-14T10:28:20;99273.09;;;16.33;100.00
4085;BME280;2057;50.858;6.572;2022-09-14T10:30:51;99285.09;;;16.38;100.00
4085;BME280;2057;50.858;6.572;2022-09-14T10:33:20;99294.44;;;16.35;100.00
4085;BME280;2057;50.858;6.572;2022-09-14T10:41:12;99295.38;;;16.43;100.00
4085;BME280;2057;50.858;6.572;2022-09-14T10:44:01;99296.16;;;16.33;100.00
4085;BME280;2057;50.858;6.572;2022-09-14T10:46:35;99291.84;;;16.28;100.00
4085;BME280;2057;50.858;6.572;2022-09-14T10:52:32;99281.75;;;16.58;100.00
4085;BME280;2057;50.858;6.572;2022-09-14T10:55:17;99270.63;;;16.54;100.00
4085;BME280;2057;50.858;6.572;2022-09-14T10:58:21;99270.63;;;16.46;100.00
4085;BME280;2057;50.858;6.572;2022-09-14T11:09:05;99250.25;;;16.81;100.00
4085;BME280;2057;50.858;6.572;2022-09-14T11:16:59;99243.38;;;16.78;100.00
4085;BME280;2057;50.858;6.572;2022-09-14T11:19:47;99236.56;;;16.80;100.00
4085;BME280;2057;50.858;6.572;2022-09-14T11:25:35;99235.75;;;16.89;100.00
4085;BME280;2057;50.858;6.572;2022-09-14T11:27:44;99229.75;;;16.85;100.00
4085;BME280;2057;50.858;6.572;2022-09-14T11:30:20;99237.50;;;16.98;100.00
4085;BME280;2057;50.858;6.572;2022-09-14T11:32:53;99239.16;;;16.89;100.00
4085;BME280;2057;50.858;6.572;2022-09-14T11:35:45;99234.03;;;16.83;100.00
4085;BME280;2057;50.858;6.572;2022-09-14T11:38:28;99233.16;;;16.81;100.00
4085;BME280;2057;50.858;6.572;2022-09-14T11:46:12;99215.31;;;17.15;100.00
4085;BME280;2057;50.858;6.572;2022-09-14T11:48:53;99216.19;;;17.17;100.00
4085;BME280;2057;50.858;6.572;2022-09-14T11:51:27;99223.84;;;17.05;100.00
4085;BME280;2057;50.858;6.572;2022-09-14T11:53:56;99229.84;;;17.10;100.00
4085;BME280;2057;50.858;6.572;2022-09-14T11:56:31;99226.41;;;17.14;100.00
4085;BME280;2057;50.858;6.572;2022-09-14T11:58:59;99218.69;;;16.99;100.00
4085;BME280;2057;50.858;6.572;2022-09-14T12:01:28;99227.28;;;17.10;100.00
4085;BME280;2057;50.858;6.572;2022-09-14T12:11:52;99243.50;;;16.93;100.00
4085;BME280;2057;50.858;6.572;2022-09-14T12:19:50;99240.03;;;16.91;100.00
4085;BME280;2057;50.858;6.572;2022-09-14T12:24:42;99241.75;;;16.94;100.00
4085;BME280;2057;50.858;6.572;2022-09-14T12:27:20;99235.75;;;16.92;100.00
4085;BME280;2057;50.858;6.572;2022-09-14T12:29:46;99225.53;;;16.95;100.00
4085;BME280;2057;50.858;6.572;2022-09-14T12:32:40;99224.69;;;16.98;100.00
4085;BME280;2057;50.858;6.572;2022-09-14T12:57:17;99193.94;;;17.13;100.00
4085;BME280;2057;50.858;6.572;2022-09-14T13:05:18;99180.25;;;17.19;100.00
4085;BME280;2057;50.858;6.572;2022-09-14T13:07:44;99181.13;;;17.19;100.00
4085;BME280;2057;50.858;6.572;2022-09-14T13:12:49;99172.56;;;17.05;100.00
4085;BME280;2057;50.858;6.572;2022-09-14T13:15:21;99181.97;;;17.06;100.00
4085;BME280;2057;50.858;6.572;2022-09-14T13:18:01;99174.25;;;17.00;100.00
4085;BME280;2057;50.858;6.572;2022-09-14T13:20:29;99173.41;;;16.96;100.00
4085;BME280;2057;50.858;6.572;2022-09-14T13:22:55;99174.22;;;16.90;100.00
4085;BME280;2057;50.858;6.572;2022-09-14T13:25:41;99183.59;;;16.81;100.00
4085;BME280;2057;50.858;6.572;2022-09-14T13:28:12;99181.88;;;16.76;100.00
4085;BME280;2057;50.858;6.572;2022-09-14T13:30:39;99186.16;;;16.82;100.00
4085;BME280;2057;50.858;6.572;2022-09-14T13:33:17;99186.16;;;16.76;100.00
4085;BME280;2057;50.858;6.572;2022-09-14T13:35:46;99184.41;;;16.72;100.00
4085;BME280;2057;50.858;6.572;2022-09-14T13:38:16;99180.16;;;16.74;100.00
4085;BME280;2057;50.858;6.572;2022-09-14T13:40:43;99182.72;;;16.71;100.00
4085;BME280;2057;50.858;6.572;2022-09-14T13:43:10;99182.75;;;16.83;100.00
4085;BME280;2057;50.858;6.572;2022-09-14T13:45:35;99181.00;;;16.70;100.00
4085;BME280;2057;50.858;6.572;2022-09-14T13:48:03;99180.16;;;16.71;100.00
4085;BME280;2057;50.858;6.572;2022-09-14T13:50:29;99198.94;;;16.67;100.00
4085;BME280;2057;50.858;6.572;2022-09-14T13:52:54;99203.19;;;16.65;100.00
4085;BME280;2057;50.858;6.572;2022-09-14T13:55:28;99186.09;;;16.60;100.00
4085;BME280;2057;50.858;6.572;2022-09-14T13:58:11;99188.66;;;16.63;100.00
4085;BME280;2057;50.858;6.572;2022-09-14T14:00:49;99192.03;;;16.49;100.00
4085;BME280;2057;50.858;6.572;2022-09-14T14:05:52;99192.88;;;16.44;100.00
4085;BME280;2057;50.858;6.572;2022-09-14T14:08:35;99203.91;;;16.23;100.00
4085;BME280;2057;50.858;6.572;2022-09-14T14:11:04;99202.97;;;16.12;100.00
4085;BME280;2057;50.858;6.572;2022-09-14T14:13:35;99196.09;;;16.05;100.00
4085;BME280;2057;50.858;6.572;2022-09-14T14:16:24;99202.00;;;15.87;100.00
4085;BME280;2057;50.858;6.572;2022-09-14T14:18:52;99196.09;;;15.98;100.00
4085;BME280;2057;50.858;6.572;2022-09-14T14:23:47;99175.69;;;16.20;100.00
4085;BME280;2057;50.858;6.572;2022-09-14T14:26:18;99176.56;;;16.24;100.00
4085;BME280;2057;50.858;6.572;2022-09-14T14:28:46;99179.13;;;16.22;100.00
4085;BME280;2057;50.858;6.572;2022-09-14T14:31:17;99180.00;;;16.24;100.00
4085;BME280;2057;50.858;6.572;2022-09-14T14:33:50;99187.72;;;16.37;100.00
4085;BME280;2057;50.858;6.572;2022-09-14T14:36:17;99182.59;;;16.37;100.00
4085;BME280;2057;50.858;6.572;2022-09-14T14:38:44;99182.66;;;16.55;100.00
4085;BME280;2057;50.858;6.572;2022-09-14T14:41:14;99176.69;;;16.52;100.00
4085;BME280;2057;50.858;6.572;2022-09-14T14:43:42;99170.75;;;16.63;100.00
4085;BME280;2057;50.858;6.572;2022-09-14T14:46:10;99172.41;;;16.55;100.00
4085;BME280;2057;50.858;6.572;2022-09-14T14:48:38;99168.19;;;16.62;100.00
4085;BME280;2057;50.858;6.572;2022-09-14T14:51:03;99166.41;;;16.45;100.00
4085;BME280;2057;50.858;6.572;2022-09-14T14:53:29;99161.28;;;16.47;100.00
4085;BME280;2057;50.858;6.572;2022-09-14T14:55:57;99162.06;;;16.27;100.00
4085;BME280;2057;50.858;6.572;2022-09-14T14:58:23;99161.22;;;16.27;100.00
4085;BME280;2057;50.858;6.572;2022-09-14T15:00:48;99158.66;;;16.28;100.00
4085;BME280;2057;50.858;6.572;2022-09-14T15:03:14;99165.44;;;16.14;100.00
4085;BME280;2057;50.858;6.572;2022-09-14T15:05:42;99162.78;;;15.95;100.00
4085;BME280;2057;50.858;6.572;2022-09-14T15:08:12;99170.47;;;16.02;100.00
4085;BME280;2057;50.858;6.572;2022-09-14T15:10:38;99167.00;;;15.87;100.00
4085;BME280;2057;50.858;6.572;2022-09-14T15:13:05;99171.31;;;15.93;100.00
4085;BME280;2057;50.858;6.572;2022-09-14T15:15:30;99172.00;;;15.75;100.00
4085;BME280;2057;50.858;6.572;2022-09-14T15:17:56;99180.50;;;15.74;100.00
4085;BME280;2057;50.858;6.572;2022-09-14T15:20:21;99179.59;;;15.64;100.00
4085;BME280;2057;50.858;6.572;2022-09-14T15:22:47;99179.81;;;15.86;100.00
4085;BME280;2057;50.858;6.572;2022-09-14T15:25:13;99170.47;;;15.94;100.00
4085;BME280;2057;50.858;6.572;2022-09-14T15:27:40;99167.09;;;16.06;100.00
4085;BME280;2057;50.858;6.572;2022-09-14T15:30:07;99173.13;;;16.12;100.00
4085;BME280;2057;50.858;6.572;2022-09-14T15:32:33;99179.84;;;15.96;100.00
4085;BME280;2057;50.858;6.572;2022-09-14T15:34:58;99191.81;;;15.99;100.00
4085;BME280;2057;50.858;6.572;2022-09-14T15:37:24;99196.06;;;15.97;100.00
4085;BME280;2057;50.858;6.572;2022-09-14T15:39:49;99201.16;;;15.91;100.00
4085;BME280;2057;50.858;6.572;2022-09-14T15:42:17;99193.50;;;15.94;100.00